Time;durP1;ratioP1;P1;durP2;ratioP2;P2;SDS_P1;SDS_P2;PMS_P1;PMS_P2;Temp;Humidity;BMP_temperature;BMP_pressure;BME280_temperature;BME280_humidity;BME280_pressure;Samples;Min_cycle;Max_cycle;Signal;HPM_P1;HPM_P2
2022/02/07 00:00:41;;;;;;;0.30;0.25;;;3.70;99.90;;;;;;2105200;28;20181;-73
2022/02/07 00:01:56;;;;;;;0.10;0.10;;;3.80;99.90;;;;;;2105564;28;20154;-74
2022/02/07 00:04:02;;;;;;;1.75;0.20;;;3.80;99.90;;;;;;2105576;28;20184;-73
2022/02/07 00:05:03;;;;;;;0.00;0.00;;;3.90;99.90;;;;;;2104808;28;20236;-74
2022/02/07 00:06:04;;;;;;;0.20;0.20;;;3.90;99.90;;;;;;2088141;28;20213;-73
2022/02/07 00:07:06;;;;;;;0.10;0.10;;;3.90;99.90;;;;;;2095347;28;20309;-72
2022/02/07 00:08:08;;;;;;;0.10;0.00;;;4.00;99.90;;;;;;2103437;28;20214;-72
2022/02/07 00:09:09;;;;;;;0.28;0.13;;;4.00;99.90;;;;;;2088033;28;20221;-73
2022/02/07 00:10:10;;;;;;;0.67;0.23;;;4.00;99.90;;;;;;2088351;28;20263;-73
2022/02/07 00:11:14;;;;;;;0.63;0.30;;;4.10;99.90;;;;;;2088226;28;20175;-73
2022/02/07 00:12:16;;;;;;;0.20;0.10;;;4.10;99.90;;;;;;2088189;28;20249;-73
2022/02/07 00:13:17;;;;;;;0.90;0.00;;;4.10;99.90;;;;;;2088203;28;20867;-72
2022/02/07 00:14:18;;;;;;;0.10;0.10;;;4.10;99.90;;;;;;2088063;28;20176;-73
2022/02/07 00:15:20;;;;;;;0.10;0.10;;;4.20;99.90;;;;;;2088169;28;20187;-73
2022/02/07 00:16:20;;;;;;;0.00;0.00;;;4.20;99.90;;;;;;2096656;28;20261;-73
2022/02/07 00:17:22;;;;;;;0.10;0.10;;;4.30;99.90;;;;;;2104753;28;20593;-73
2022/02/07 00:18:23;;;;;;;0.17;0.17;;;4.30;99.90;;;;;;2088818;28;20187;-73
2022/02/07 00:19:27;;;;;;;0.10;0.10;;;4.30;99.90;;;;;;2088644;28;20177;-73
2022/02/07 00:20:28;;;;;;;0.00;0.00;;;4.30;99.90;;;;;;2088280;28;20673;-73
2022/02/07 00:21:28;;;;;;;0.10;0.10;;;4.30;99.90;;;;;;2090377;28;20191;-72
2022/02/07 00:22:29;;;;;;;0.20;0.10;;;4.30;99.90;;;;;;2091022;28;20208;-73
2022/02/07 00:23:30;;;;;;;0.00;0.00;;;4.30;99.90;;;;;;2091063;28;20183;-73
2022/02/07 00:24:31;;;;;;;0.67;0.10;;;4.30;99.90;;;;;;2090735;28;20640;-73
2022/02/07 00:25:31;;;;;;;0.17;0.07;;;4.30;99.90;;;;;;2090897;28;20321;-72
2022/02/07 00:26:32;;;;;;;0.00;0.00;;;4.30;99.90;;;;;;2099171;28;20185;-73
2022/02/07 00:27:34;;;;;;;0.07;0.07;;;4.40;99.90;;;;;;2091491;28;20211;-72
2022/02/07 00:28:34;;;;;;;0.00;0.00;;;4.40;99.90;;;;;;2099111;28;20221;-72
2022/02/07 00:29:35;;;;;;;1.07;0.17;;;4.40;99.90;;;;;;2090879;28;20702;-73
2022/02/07 00:30:36;;;;;;;0.00;0.00;;;4.30;99.90;;;;;;2090893;28;20684;-73
2022/02/07 00:31:36;;;;;;;0.00;0.00;;;4.30;99.90;;;;;;2091545;28;20241;-72
2022/02/07 00:32:38;;;;;;;0.07;0.03;;;4.30;99.90;;;;;;2091435;28;20246;-73
2022/02/07 00:33:39;;;;;;;0.10;0.10;;;4.30;99.90;;;;;;2090926;28;20727;-72
2022/02/07 00:34:39;;;;;;;0.00;0.00;;;4.20;99.90;;;;;;2090765;28;20180;-72
2022/02/07 00:35:40;;;;;;;0.20;0.10;;;4.10;99.90;;;;;;2090888;28;20176;-73
2022/02/07 00:36:41;;;;;;;0.20;0.17;;;4.20;99.90;;;;;;2090871;28;20172;-73
2022/02/07 00:37:45;;;;;;;0.00;0.00;;;4.10;99.90;;;;;;2090982;28;20185;-72
2022/02/07 00:38:50;;;;;;;0.20;0.10;;;4.10;99.90;;;;;;2090900;28;20179;-72
2022/02/07 00:39:58;;;;;;;0.10;0.10;;;4.00;99.90;;;;;;2091643;28;20187;-73
2022/02/07 00:41:12;;;;;;;0.10;0.10;;;3.90;99.90;;;;;;2107162;28;20238;-73
2022/02/07 00:42:23;;;;;;;0.00;0.00;;;3.50;99.90;;;;;;2099135;28;20175;-73
2022/02/07 00:44:27;;;;;;;0.00;0.00;;;3.00;99.90;;;;;;2092526;28;20230;-73
2022/02/07 00:46:46;;;;;;;0.10;0.10;;;2.80;99.90;;;;;;2099020;28;20229;-73
2022/02/07 00:47:47;;;;;;;0.03;0.03;;;2.70;99.90;;;;;;2092787;28;20214;-73
2022/02/07 00:48:48;;;;;;;0.10;0.10;;;2.60;99.90;;;;;;2082468;28;20259;-73
2022/02/07 00:49:48;;;;;;;0.10;0.07;;;2.60;99.90;;;;;;2090790;28;20193;-73
2022/02/07 00:50:51;;;;;;;0.00;0.00;;;2.50;99.90;;;;;;2099132;28;20182;-73
2022/02/07 00:51:51;;;;;;;0.00;0.00;;;2.50;99.90;;;;;;2091146;28;20185;-73
2022/02/07 00:52:52;;;;;;;0.10;0.10;;;2.40;99.90;;;;;;2082296;28;20203;-73
2022/02/07 00:53:53;;;;;;;0.07;0.07;;;2.40;99.90;;;;;;2082625;28;20266;-74
2022/02/07 00:54:53;;;;;;;1.67;0.10;;;2.30;99.90;;;;;;2098925;28;20642;-73
2022/02/07 00:55:54;;;;;;;0.10;0.10;;;2.30;99.90;;;;;;2099130;28;20682;-73
2022/02/07 00:56:55;;;;;;;0.00;0.00;;;2.30;99.90;;;;;;2090850;28;20826;-74
2022/02/07 00:57:55;;;;;;;0.00;0.00;;;2.10;99.90;;;;;;2099107;28;20184;-73
2022/02/07 00:58:56;;;;;;;0.00;0.00;;;2.00;99.90;;;;;;2099032;28;20187;-74
2022/02/07 00:59:57;;;;;;;0.10;0.10;;;2.00;99.90;;;;;;2082473;28;20188;-74
2022/02/07 01:00:58;;;;;;;0.00;0.00;;;1.90;99.90;;;;;;2090868;28;20238;-74
2022/02/07 01:01:58;;;;;;;0.10;0.10;;;1.80;99.90;;;;;;2098943;28;20191;-74
2022/02/07 01:02:59;;;;;;;0.10;0.10;;;1.80;99.90;;;;;;2090811;28;20407;-74
2022/02/07 01:04:00;;;;;;;0.10;0.10;;;1.80;99.90;;;;;;2099065;28;20179;-74
2022/02/07 01:05:01;;;;;;;0.10;0.10;;;1.60;99.90;;;;;;2090599;28;20189;-75
2022/02/07 01:06:02;;;;;;;0.00;0.00;;;1.60;99.90;;;;;;2082573;28;20181;-75
2022/02/07 01:07:05;;;;;;;0.00;0.00;;;1.60;99.90;;;;;;2090871;28;20220;-75
2022/02/07 01:08:06;;;;;;;1.60;0.20;;;1.60;99.90;;;;;;2090942;28;20303;-75
2022/02/07 01:09:17;;;;;;;0.10;0.10;;;1.50;99.90;;;;;;2082622;28;20234;-74
2022/02/07 01:10:26;;;;;;;0.47;0.10;;;1.50;99.90;;;;;;2092303;28;20165;-75
2022/02/07 01:11:35;;;;;;;3.00;0.10;;;1.40;99.90;;;;;;2090895;28;20176;-75
2022/02/07 01:13:59;;;;;;;0.10;0.10;;;1.30;99.90;;;;;;2092483;28;20226;-75
2022/02/07 01:16:47;;;;;;;0.50;0.30;;;1.20;99.90;;;;;;2060821;28;20222;-75
2022/02/07 01:22:12;;;;;;;3.00;0.40;;;1.20;99.90;;;;;;2096123;28;20176;-75
2022/02/07 01:49:59;;;;;;;0.63;0.50;;;1.00;99.90;;;;;;2097825;28;20237;-73
2022/02/07 01:56:29;;;;;;;1.17;0.80;;;1.00;99.90;;;;;;2097947;28;20185;-73
2022/02/07 01:57:30;;;;;;;0.68;0.40;;;1.10;99.90;;;;;;2097482;28;20184;-72
2022/02/07 01:58:31;;;;;;;0.50;0.50;;;1.00;99.90;;;;;;2089577;28;20169;-73
2022/02/07 01:59:31;;;;;;;0.77;0.77;;;1.00;99.90;;;;;;2089169;28;20995;-74
2022/02/07 02:00:34;;;;;;;0.90;0.50;;;1.00;99.90;;;;;;2097515;28;20181;-73
2022/02/07 02:01:37;;;;;;;2.42;0.68;;;1.00;99.90;;;;;;2097471;28;20230;-73
2022/02/07 02:02:37;;;;;;;0.85;0.65;;;1.00;99.90;;;;;;2097428;28;20733;-73
2022/02/07 02:03:38;;;;;;;0.67;0.40;;;1.00;99.90;;;;;;2097490;28;20176;-73
2022/02/07 02:04:39;;;;;;;0.90;0.70;;;1.00;99.90;;;;;;2097404;28;20180;-73
2022/02/07 02:05:40;;;;;;;0.50;0.50;;;1.00;99.90;;;;;;2098162;28;20172;-73
2022/02/07 02:06:40;;;;;;;0.80;0.80;;;1.00;99.90;;;;;;2098335;28;20797;-73
2022/02/07 02:07:43;;;;;;;1.97;0.70;;;1.00;99.90;;;;;;2097963;28;20982;-73
2022/02/07 02:08:43;;;;;;;0.80;0.50;;;1.00;99.90;;;;;;2097463;28;20170;-73
2022/02/07 02:09:45;;;;;;;0.60;0.50;;;1.00;99.90;;;;;;2089077;28;20186;-73
2022/02/07 02:10:50;;;;;;;5.93;0.73;;;1.00;99.90;;;;;;2097442;28;20172;-72
2022/02/07 02:11:51;;;;;;;0.85;0.40;;;0.90;99.90;;;;;;2089280;28;20210;-73
2022/02/07 02:15:14;;;;;;;1.10;0.50;;;1.00;99.90;;;;;;2097434;28;20187;-73
2022/02/07 02:16:42;;;;;;;1.75;0.50;;;1.00;99.90;;;;;;2092057;28;20235;-73
2022/02/07 02:20:45;;;;;;;1.10;0.50;;;1.10;99.90;;;;;;2089462;28;20317;-73
2022/02/07 02:32:43;;;;;;;1.52;0.50;;;1.00;99.90;;;;;;2092643;28;20187;-73
2022/02/07 02:38:14;;;;;;;2.20;0.53;;;1.00;99.90;;;;;;2097968;28;20184;-73
2022/02/07 02:45:33;;;;;;;0.60;0.57;;;1.00;99.90;;;;;;2097860;28;20644;-74
2022/02/07 02:46:35;;;;;;;1.35;0.68;;;1.00;99.90;;;;;;2097091;28;20180;-72
2022/02/07 02:47:35;;;;;;;1.63;0.65;;;1.10;99.90;;;;;;2088843;28;20189;-73
2022/02/07 02:48:41;;;;;;;1.17;0.67;;;1.10;99.90;;;;;;2088801;28;20307;-72
2022/02/07 02:49:47;;;;;;;1.73;0.70;;;1.10;99.90;;;;;;2089409;28;20188;-73
2022/02/07 02:50:51;;;;;;;1.33;0.63;;;1.10;99.90;;;;;;2097336;28;20176;-72
2022/02/07 02:51:52;;;;;;;0.70;0.60;;;1.10;99.90;;;;;;2097721;28;20180;-72
2022/02/07 02:52:54;;;;;;;2.10;0.70;;;1.10;99.90;;;;;;2098053;28;20271;-73
2022/02/07 02:53:55;;;;;;;2.08;0.80;;;1.10;99.90;;;;;;2097069;28;20172;-74
2022/02/07 02:54:56;;;;;;;2.47;1.10;;;1.00;99.90;;;;;;2080513;28;20193;-72
2022/02/07 02:55:57;;;;;;;1.17;0.77;;;1.00;99.90;;;;;;2080625;28;20209;-74
2022/02/07 02:56:57;;;;;;;1.10;0.70;;;1.00;99.90;;;;;;2080528;28;20267;-72
2022/02/07 02:57:58;;;;;;;1.83;1.30;;;1.00;99.90;;;;;;2080589;28;20973;-72
2022/02/07 02:58:59;;;;;;;2.22;0.85;;;1.00;99.90;;;;;;2088807;28;20191;-73
2022/02/07 02:59:59;;;;;;;3.10;0.90;;;1.10;99.90;;;;;;2097076;28;20179;-72
2022/02/07 03:01:00;;;;;;;2.03;1.10;;;1.10;99.90;;;;;;2097141;28;20175;-72
2022/02/07 03:02:01;;;;;;;0.80;0.60;;;1.00;99.90;;;;;;2088742;28;20637;-72
2022/02/07 03:03:02;;;;;;;3.23;0.80;;;1.00;99.90;;;;;;2080453;28;20563;-72
2022/02/07 03:04:03;;;;;;;2.55;0.80;;;1.00;99.90;;;;;;2088869;28;20185;-72
2022/02/07 03:05:04;;;;;;;1.00;0.70;;;1.00;99.90;;;;;;2096933;28;20180;-72
2022/02/07 03:06:05;;;;;;;1.60;0.50;;;1.00;99.90;;;;;;2096981;28;20676;-72
2022/02/07 03:07:05;;;;;;;1.73;0.70;;;1.00;99.90;;;;;;2097137;28;20205;-75
2022/02/07 03:08:06;;;;;;;0.70;0.60;;;1.00;99.90;;;;;;2088500;28;20221;-72
2022/02/07 03:09:13;;;;;;;1.73;0.70;;;1.00;99.90;;;;;;2096961;28;20226;-72
2022/02/07 03:10:24;;;;;;;0.50;0.50;;;1.00;99.90;;;;;;2097083;28;20164;-72
2022/02/07 03:11:26;;;;;;;1.45;0.70;;;1.10;99.90;;;;;;2097297;28;20249;-72
2022/02/07 03:12:28;;;;;;;1.10;0.73;;;1.10;99.90;;;;;;2097547;28;20869;-72
2022/02/07 03:14:43;;;;;;;4.87;1.10;;;1.00;99.90;;;;;;2097597;28;20233;-72
2022/02/07 03:17:04;;;;;;;2.53;0.95;;;0.90;99.90;;;;;;2097592;28;20246;-72
2022/02/07 03:18:04;;;;;;;1.60;0.87;;;0.90;99.90;;;;;;2096967;28;20177;-72
2022/02/07 03:19:09;;;;;;;3.53;0.97;;;0.90;99.90;;;;;;2096848;28;20545;-72
2022/02/07 03:20:10;;;;;;;2.08;1.13;;;1.00;99.90;;;;;;2097083;28;20190;-72
2022/02/07 03:21:11;;;;;;;6.40;0.90;;;0.90;99.90;;;;;;2096914;28;20183;-71
2022/02/07 03:22:11;;;;;;;1.37;0.90;;;0.80;99.90;;;;;;2096921;28;20173;-74
2022/02/07 03:23:12;;;;;;;4.10;1.37;;;0.80;99.90;;;;;;2096923;28;20182;-72
2022/02/07 03:24:13;;;;;;;1.30;0.87;;;0.80;99.90;;;;;;2096957;28;20261;-72
2022/02/07 03:25:14;;;;;;;1.45;0.80;;;0.80;99.90;;;;;;2088459;28;20188;-72
2022/02/07 03:26:17;;;;;;;1.07;0.77;;;0.90;99.90;;;;;;2088787;28;20271;-72
2022/02/07 03:27:18;;;;;;;1.23;0.82;;;0.90;99.90;;;;;;2088924;28;20180;-72
2022/02/07 03:28:20;;;;;;;2.93;1.00;;;0.90;99.90;;;;;;2096938;28;20180;-72
2022/02/07 03:29:20;;;;;;;1.42;0.70;;;0.80;99.90;;;;;;2096678;28;20180;-72
2022/02/07 03:30:21;;;;;;;1.97;1.00;;;0.90;99.90;;;;;;2096954;28;20668;-72
2022/02/07 03:31:22;;;;;;;1.50;0.87;;;0.90;99.90;;;;;;2097486;28;20212;-73
2022/02/07 03:32:22;;;;;;;1.67;1.10;;;0.90;99.90;;;;;;2096979;28;20298;-72
2022/02/07 03:33:23;;;;;;;2.93;1.10;;;0.80;99.90;;;;;;2097068;28;20250;-72
2022/02/07 03:34:24;;;;;;;1.90;0.95;;;0.80;99.90;;;;;;2096786;28;20640;-72
2022/02/07 03:35:25;;;;;;;1.10;0.80;;;0.80;99.90;;;;;;2096774;28;20187;-72
2022/02/07 03:36:29;;;;;;;6.53;0.90;;;0.80;99.90;;;;;;2088601;28;20277;-72
2022/02/07 03:37:30;;;;;;;1.10;0.90;;;0.80;99.90;;;;;;2089198;28;20188;-72
2022/02/07 03:38:30;;;;;;;3.27;1.13;;;0.80;99.90;;;;;;2088587;28;20181;-72
2022/02/07 03:39:32;;;;;;;2.80;1.10;;;0.80;99.90;;;;;;2080181;28;20182;-72
2022/02/07 03:40:33;;;;;;;4.05;0.88;;;0.80;99.90;;;;;;2096799;28;20680;-73
2022/02/07 03:41:36;;;;;;;1.63;1.13;;;0.80;99.90;;;;;;2088419;28;20709;-71
2022/02/07 03:42:36;;;;;;;5.57;1.55;;;0.80;99.90;;;;;;2080530;28;20200;-72
2022/02/07 03:43:37;;;;;;;1.87;1.20;;;0.80;99.90;;;;;;2088881;28;20642;-72
2022/02/07 03:44:38;;;;;;;5.80;1.10;;;0.80;99.90;;;;;;2105115;28;20201;-71
2022/02/07 03:45:38;;;;;;;5.10;1.27;;;0.70;99.90;;;;;;2095184;28;20199;-73
2022/02/07 03:46:39;;;;;;;1.77;1.10;;;0.80;99.90;;;;;;2097345;28;20237;-72
2022/02/07 03:47:40;;;;;;;4.97;1.07;;;0.70;99.90;;;;;;2097208;28;20199;-72
2022/02/07 03:48:40;;;;;;;8.13;1.80;;;0.70;99.90;;;;;;2096818;28;20187;-73
2022/02/07 03:49:41;;;;;;;2.40;1.13;;;0.80;99.90;;;;;;2096739;28;20666;-72
2022/02/07 03:50:41;;;;;;;4.30;1.10;;;0.80;99.90;;;;;;2096742;28;20570;-72
2022/02/07 03:51:46;;;;;;;2.87;1.07;;;0.70;99.90;;;;;;2096832;28;20550;-72
2022/02/07 03:52:47;;;;;;;1.58;1.00;;;0.70;99.90;;;;;;2096854;28;20334;-72
2022/02/07 03:53:48;;;;;;;2.80;1.00;;;0.70;99.90;;;;;;2089134;28;20231;-72
2022/02/07 03:54:48;;;;;;;2.03;0.90;;;0.70;99.90;;;;;;2096773;28;20647;-71
2022/02/07 03:55:50;;;;;;;2.77;1.30;;;0.70;99.90;;;;;;2096268;28;20180;-72
2022/02/07 03:56:50;;;;;;;4.95;1.35;;;0.70;99.90;;;;;;2088448;28;20188;-73
2022/02/07 03:57:51;;;;;;;3.43;1.30;;;0.70;99.90;;;;;;2096675;28;20246;-72
2022/02/07 03:58:52;;;;;;;2.43;1.37;;;0.70;99.90;;;;;;2097351;28;20207;-72
2022/02/07 03:59:52;;;;;;;6.33;1.40;;;0.70;99.90;;;;;;2088355;28;20195;-72
2022/02/07 04:00:55;;;;;;;2.13;1.40;;;0.70;99.90;;;;;;2088548;28;20178;-72
2022/02/07 04:01:56;;;;;;;6.03;1.00;;;0.70;99.90;;;;;;2097284;28;20632;-72
2022/02/07 04:02:59;;;;;;;1.65;1.10;;;0.80;99.90;;;;;;2096791;28;20203;-72
2022/02/07 04:04:00;;;;;;;1.90;1.10;;;0.80;99.90;;;;;;2088816;28;20187;-72
2022/02/07 04:05:22;;;;;;;3.33;1.07;;;0.80;99.90;;;;;;2096572;28;20191;-72
2022/02/07 04:06:23;;;;;;;4.05;1.10;;;0.80;99.90;;;;;;2097166;28;20195;-72
2022/02/07 04:07:23;;;;;;;2.75;1.00;;;0.80;99.90;;;;;;2096687;28;20184;-72
2022/02/07 04:08:37;;;;;;;1.30;1.10;;;0.70;99.90;;;;;;2096533;28;20175;-72
2022/02/07 04:09:44;;;;;;;2.65;1.10;;;0.70;99.90;;;;;;2096709;28;20159;-72
2022/02/07 04:10:57;;;;;;;4.30;1.00;;;0.70;99.90;;;;;;2091020;28;20796;-72
2022/02/07 04:12:05;;;;;;;2.50;0.90;;;0.70;99.90;;;;;;2090855;28;20247;-72
2022/02/07 04:13:08;;;;;;;5.55;1.27;;;0.70;99.90;;;;;;2097035;28;20160;-72
2022/02/07 04:14:10;;;;;;;3.85;1.10;;;0.70;99.90;;;;;;2096621;28;20173;-72
2022/02/07 04:15:15;;;;;;;4.32;1.42;;;0.70;99.90;;;;;;2088869;28;20209;-73
2022/02/07 04:16:16;;;;;;;2.92;1.20;;;0.70;99.90;;;;;;2096814;28;20670;-72
2022/02/07 04:17:25;;;;;;;1.20;1.10;;;0.70;99.90;;;;;;2096864;28;20184;-72
2022/02/07 04:18:30;;;;;;;3.65;1.30;;;0.70;99.90;;;;;;2096552;28;20190;-72
2022/02/07 04:19:33;;;;;;;6.97;1.58;;;0.70;99.90;;;;;;2098329;28;20227;-73
2022/02/07 04:20:36;;;;;;;7.13;1.70;;;0.70;99.90;;;;;;2104219;28;20197;-72
2022/02/07 04:21:38;;;;;;;2.92;1.50;;;0.70;99.90;;;;;;2097295;28;20191;-71
2022/02/07 04:22:39;;;;;;;1.58;1.23;;;0.70;99.90;;;;;;2096529;28;20207;-71
2022/02/07 04:23:39;;;;;;;2.23;1.10;;;0.70;99.90;;;;;;2096521;28;20271;-74
2022/02/07 04:24:40;;;;;;;3.97;1.83;;;0.70;99.90;;;;;;2096403;28;20657;-72
2022/02/07 04:25:41;;;;;;;1.70;1.17;;;0.70;99.90;;;;;;2096755;28;20172;-72
2022/02/07 04:26:42;;;;;;;2.87;0.77;;;0.80;99.90;;;;;;2096432;28;20207;-73
2022/02/07 04:27:42;;;;;;;5.03;2.10;;;0.80;99.90;;;;;;2104908;28;20195;-71
2022/02/07 04:28:43;;;;;;;3.67;1.47;;;0.80;99.90;;;;;;2096403;28;20176;-72
2022/02/07 04:29:44;;;;;;;2.73;1.30;;;0.80;99.90;;;;;;2088332;28;20177;-72
2022/02/07 04:30:45;;;;;;;4.03;1.47;;;0.70;99.90;;;;;;2096650;28;20222;-73
2022/02/07 04:31:45;;;;;;;2.50;1.13;;;0.70;99.90;;;;;;2096821;28;20178;-72
2022/02/07 04:32:46;;;;;;;1.87;0.93;;;0.70;99.90;;;;;;2105015;28;20521;-72
2022/02/07 04:33:47;;;;;;;3.50;1.10;;;0.70;99.90;;;;;;2104997;28;20261;-72
2022/02/07 04:34:47;;;;;;;3.30;1.37;;;0.70;99.90;;;;;;2097191;28;20179;-72
2022/02/07 04:35:48;;;;;;;2.80;1.10;;;0.70;99.90;;;;;;2097207;28;20179;-72
2022/02/07 04:36:55;;;;;;;1.37;0.70;;;0.70;99.90;;;;;;2097218;28;20579;-72
2022/02/07 04:37:55;;;;;;;1.30;0.93;;;0.60;99.90;;;;;;2096681;28;20672;-72
2022/02/07 04:38:56;;;;;;;1.50;1.00;;;0.60;99.90;;;;;;2096579;28;20197;-72
2022/02/07 04:39:57;;;;;;;3.80;1.17;;;0.60;99.90;;;;;;2096625;28;20668;-72
2022/02/07 04:40:57;;;;;;;5.17;1.50;;;0.60;99.90;;;;;;2096687;28;20677;-72
2022/02/07 04:41:59;;;;;;;3.63;1.20;;;0.60;99.90;;;;;;2096446;28;20184;-72
2022/02/07 04:43:00;;;;;;;1.88;1.20;;;0.70;99.90;;;;;;2097382;28;20305;-73
2022/02/07 04:44:07;;;;;;;1.33;1.20;;;0.70;99.90;;;;;;2096429;28;20180;-72
2022/02/07 04:45:31;;;;;;;3.45;1.60;;;0.70;99.90;;;;;;2096443;28;20231;-72
2022/02/07 04:51:52;;;;;;;1.40;0.90;;;0.50;99.90;;;;;;2079682;28;20256;-74
2022/02/07 04:55:39;;;;;;;2.92;0.90;;;0.40;99.90;;;;;;2088414;28;20176;-72
2022/02/07 04:58:27;;;;;;;0.40;0.40;;;0.30;99.90;;;;;;2089089;28;20206;-72
2022/02/07 04:59:44;;;;;;;0.80;0.40;;;0.30;99.90;;;;;;2088477;28;20207;-72
2022/02/07 05:00:52;;;;;;;0.75;0.57;;;0.30;99.90;;;;;;2078169;28;20212;-72
2022/02/07 05:02:00;;;;;;;0.32;0.32;;;0.30;99.90;;;;;;2083448;28;20259;-72
2022/02/07 05:03:07;;;;;;;1.65;0.50;;;0.30;99.90;;;;;;2088912;28;20257;-72
2022/02/07 05:04:19;;;;;;;0.50;0.50;;;0.20;99.90;;;;;;2088257;28;20242;-72
2022/02/07 05:13:48;;;;;;;3.45;0.65;;;0.10;99.90;;;;;;2090088;28;20161;-72
2022/02/07 05:14:22;;;;;;;0.80;0.80;;;0.10;99.90;;;;;;2075709;28;20263;-73
2022/02/07 05:15:22;;;;;;;1.33;0.70;;;0.10;99.90;;;;;;2084268;28;20188;-73
2022/02/07 05:16:26;;;;;;;2.60;1.00;;;0.00;99.90;;;;;;2081420;28;20173;-72
2022/02/07 05:17:27;;;;;;;1.60;0.90;;;0.00;99.90;;;;;;2089683;28;20280;-72
2022/02/07 05:18:30;;;;;;;1.20;0.70;;;0.00;99.90;;;;;;2089757;28;20264;-72
2022/02/07 05:19:31;;;;;;;1.17;0.80;;;0.00;99.90;;;;;;2089587;28;20184;-71
2022/02/07 05:20:31;;;;;;;1.40;1.30;;;-0.10;99.90;;;;;;2081318;28;20188;-72
2022/02/07 05:21:32;;;;;;;1.80;0.80;;;-0.10;99.90;;;;;;2081376;28;20185;-72
2022/02/07 05:22:34;;;;;;;1.80;0.80;;;-0.10;99.90;;;;;;2090167;28;20207;-73
2022/02/07 05:23:34;;;;;;;4.05;0.80;;;0.00;99.90;;;;;;2089653;28;20579;-72
2022/02/07 05:24:35;;;;;;;1.47;0.63;;;-0.10;99.90;;;;;;2089510;28;20196;-73
2022/02/07 05:25:36;;;;;;;1.73;0.80;;;0.00;99.90;;;;;;2090131;28;20180;-72
2022/02/07 05:26:36;;;;;;;3.17;1.00;;;-0.10;99.90;;;;;;2089584;28;20185;-72
2022/02/07 05:27:37;;;;;;;1.87;0.90;;;-0.10;99.90;;;;;;2089462;28;20200;-72
2022/02/07 05:28:38;;;;;;;2.47;1.20;;;-0.10;99.90;;;;;;2090158;28;20189;-72
2022/02/07 05:29:38;;;;;;;2.37;0.87;;;-0.10;99.90;;;;;;2089557;28;20219;-72
2022/02/07 05:30:39;;;;;;;1.93;1.20;;;-0.10;99.90;;;;;;2089618;28;20703;-72
2022/02/07 05:31:40;;;;;;;1.07;0.70;;;-0.10;99.90;;;;;;2090105;28;20180;-72
2022/02/07 05:32:41;;;;;;;3.13;0.87;;;0.00;99.90;;;;;;2089299;28;20227;-72
2022/02/07 05:33:41;;;;;;;1.23;1.10;;;0.00;99.90;;;;;;2089372;28;20184;-74
2022/02/07 05:34:43;;;;;;;5.27;0.83;;;0.00;99.90;;;;;;2089964;28;20177;-72
2022/02/07 05:35:44;;;;;;;32.55;2.20;;;-0.10;99.90;;;;;;2089396;28;20624;-72
2022/02/07 05:36:46;;;;;;;1.93;1.07;;;-0.20;99.90;;;;;;2089572;28;20211;-72
2022/02/07 05:37:47;;;;;;;3.92;1.25;;;-0.20;99.90;;;;;;2089483;28;20215;-72
2022/02/07 05:38:50;;;;;;;2.10;1.00;;;-0.20;99.90;;;;;;2089329;28;20632;-72
2022/02/07 05:39:56;;;;;;;2.50;1.33;;;-0.10;99.90;;;;;;2089306;28;20180;-72
2022/02/07 05:41:01;;;;;;;1.85;0.85;;;-0.10;99.90;;;;;;2082324;28;20207;-72
2022/02/07 05:42:05;;;;;;;2.33;1.08;;;-0.10;99.90;;;;;;2073325;28;20213;-72
2022/02/07 05:43:08;;;;;;;2.72;1.10;;;-0.20;99.90;;;;;;2082174;28;20179;-73
2022/02/07 05:44:11;;;;;;;1.40;1.02;;;-0.10;99.90;;;;;;2089350;28;20671;-72
2022/02/07 05:45:12;;;;;;;2.28;1.10;;;-0.20;99.90;;;;;;2081526;28;20185;-72
2022/02/07 05:46:14;;;;;;;1.47;0.87;;;-0.20;99.90;;;;;;2081375;28;20554;-73
2022/02/07 05:47:15;;;;;;;1.67;1.00;;;-0.20;99.90;;;;;;2081254;28;20557;-72
2022/02/07 05:48:15;;;;;;;2.67;1.07;;;-0.20;99.90;;;;;;2080991;28;20220;-72
2022/02/07 05:49:17;;;;;;;2.77;1.40;;;-0.30;99.90;;;;;;2089257;28;20261;-74
2022/02/07 05:50:17;;;;;;;2.05;0.70;;;-0.30;99.90;;;;;;2081014;28;20195;-72
2022/02/07 05:51:18;;;;;;;1.20;0.80;;;-0.30;99.90;;;;;;2089439;28;20215;-74
2022/02/07 05:52:19;;;;;;;5.00;1.80;;;-0.40;99.90;;;;;;2090004;28;20200;-72
2022/02/07 05:53:19;;;;;;;2.37;0.97;;;-0.30;99.90;;;;;;2089347;28;20626;-72
2022/02/07 05:54:21;;;;;;;3.97;1.10;;;-0.40;99.90;;;;;;2080709;28;20187;-74
2022/02/07 05:55:22;;;;;;;2.03;0.95;;;-0.30;99.90;;;;;;2080848;28;20236;-72
2022/02/07 05:56:23;;;;;;;2.40;0.97;;;-0.30;99.90;;;;;;2081011;28;20181;-72
2022/02/07 05:57:23;;;;;;;6.93;1.67;;;-0.30;99.90;;;;;;2089331;28;20176;-72
2022/02/07 05:58:26;;;;;;;2.03;0.90;;;-0.30;99.90;;;;;;2089281;28;20185;-72
2022/02/07 05:59:26;;;;;;;2.88;1.00;;;-0.30;99.90;;;;;;2089226;28;20765;-73
2022/02/07 06:00:32;;;;;;;4.77;1.23;;;-0.30;99.90;;;;;;2089162;28;20214;-72
2022/02/07 06:01:33;;;;;;;6.93;2.05;;;-0.30;99.90;;;;;;2089323;28;20176;-73
2022/02/07 06:02:34;;;;;;;3.57;0.97;;;-0.30;99.90;;;;;;2089029;28;20208;-73
2022/02/07 06:03:35;;;;;;;1.88;1.33;;;-0.30;99.90;;;;;;2089127;28;20181;-74
2022/02/07 06:04:35;;;;;;;1.43;1.00;;;-0.20;99.90;;;;;;2080719;28;20773;-72
2022/02/07 06:05:36;;;;;;;3.37;1.17;;;-0.20;99.90;;;;;;2081010;28;20673;-72
2022/02/07 06:06:37;;;;;;;1.53;0.73;;;-0.30;99.90;;;;;;2089191;28;20270;-73
2022/02/07 06:07:38;;;;;;;1.67;1.20;;;-0.30;99.90;;;;;;2089621;28;20185;-72
2022/02/07 06:08:38;;;;;;;4.35;1.00;;;-0.20;99.90;;;;;;2089161;28;20210;-72
2022/02/07 06:09:39;;;;;;;2.40;0.90;;;-0.30;99.90;;;;;;2089036;28;20558;-72
2022/02/07 06:10:40;;;;;;;2.77;0.97;;;-0.30;99.90;;;;;;2089771;28;20188;-72
2022/02/07 06:11:40;;;;;;;4.07;1.07;;;-0.40;99.90;;;;;;2080739;28;20181;-72
2022/02/07 06:12:43;;;;;;;1.50;1.10;;;-0.40;99.90;;;;;;2080811;28;20193;-73
2022/02/07 06:13:44;;;;;;;1.63;1.10;;;-0.30;99.90;;;;;;2089105;28;20180;-72
2022/02/07 06:14:45;;;;;;;3.23;1.80;;;-0.30;99.90;;;;;;2080686;28;20189;-73
2022/02/07 06:15:46;;;;;;;2.10;1.10;;;-0.30;99.90;;;;;;2080717;28;20193;-72
2022/02/07 06:16:47;;;;;;;3.63;0.90;;;-0.20;99.90;;;;;;2072619;28;20603;-73
2022/02/07 06:17:51;;;;;;;3.13;1.37;;;-0.20;99.90;;;;;;2080865;28;20199;-72
2022/02/07 06:18:52;;;;;;;3.45;1.00;;;-0.20;99.90;;;;;;2088318;28;20181;-72
2022/02/07 06:19:54;;;;;;;5.93;1.47;;;-0.30;99.90;;;;;;2081171;28;20189;-72
2022/02/07 06:21:00;;;;;;;4.45;1.42;;;-0.20;99.90;;;;;;2086096;28;20187;-72
2022/02/07 06:22:01;;;;;;;2.55;1.40;;;-0.20;99.90;;;;;;2097250;28;20168;-74
2022/02/07 06:23:02;;;;;;;2.63;1.10;;;-0.20;99.90;;;;;;2105711;28;20178;-72
2022/02/07 06:24:03;;;;;;;2.73;1.57;;;-0.20;99.90;;;;;;2105604;28;20179;-72
2022/02/07 06:25:04;;;;;;;2.47;0.90;;;-0.20;99.90;;;;;;2097884;28;20191;-73
2022/02/07 06:26:05;;;;;;;6.60;1.73;;;-0.30;99.90;;;;;;2097149;28;20274;-72
2022/02/07 06:27:06;;;;;;;5.43;1.70;;;-0.30;99.90;;;;;;2089040;28;20267;-72
2022/02/07 06:28:07;;;;;;;3.10;1.13;;;-0.30;99.90;;;;;;2097161;28;20203;-72
2022/02/07 06:29:07;;;;;;;6.47;1.60;;;-0.20;99.90;;;;;;2097215;28;20195;-73
2022/02/07 06:30:10;;;;;;;2.93;1.20;;;-0.20;99.90;;;;;;2097111;28;20241;-73
2022/02/07 06:31:11;;;;;;;4.25;1.40;;;-0.10;99.90;;;;;;2097261;28;20176;-72
2022/02/07 06:32:12;;;;;;;1.40;1.00;;;-0.10;99.90;;;;;;2089128;28;20543;-73
2022/02/07 06:33:13;;;;;;;3.80;1.65;;;-0.10;99.90;;;;;;2097127;28;20175;-72
2022/02/07 06:34:14;;;;;;;3.83;1.10;;;-0.10;99.90;;;;;;2097288;28;20192;-72
2022/02/07 06:35:15;;;;;;;3.13;1.77;;;-0.20;99.90;;;;;;2097058;28;20250;-72
2022/02/07 06:36:16;;;;;;;6.20;1.38;;;-0.20;99.90;;;;;;2088881;28;20613;-73
2022/02/07 06:37:17;;;;;;;4.67;1.60;;;-0.20;99.90;;;;;;2097311;28;20191;-72
2022/02/07 06:38:17;;;;;;;5.23;2.10;;;-0.10;99.90;;;;;;2097710;28;20183;-74
2022/02/07 06:39:18;;;;;;;5.90;2.10;;;-0.10;99.90;;;;;;2097071;28;20948;-73
2022/02/07 06:40:20;;;;;;;5.97;2.00;;;0.00;99.90;;;;;;2097078;28;20187;-73
2022/02/07 06:41:21;;;;;;;4.75;1.83;;;0.00;99.90;;;;;;2105378;28;20195;-73
2022/02/07 06:42:21;;;;;;;8.68;1.77;;;0.00;99.90;;;;;;2097106;28;20207;-72
2022/02/07 06:43:22;;;;;;;4.00;1.50;;;0.00;99.90;;;;;;2105405;28;20655;-72
2022/02/07 06:44:24;;;;;;;3.80;1.60;;;-0.10;99.90;;;;;;2096635;28;20183;-72
2022/02/07 06:45:25;;;;;;;6.75;2.40;;;-0.10;99.90;;;;;;2097077;28;20187;-72
2022/02/07 06:46:26;;;;;;;2.43;1.60;;;-0.10;99.90;;;;;;2097105;28;20732;-73
2022/02/07 06:47:28;;;;;;;6.70;2.67;;;-0.10;99.90;;;;;;2097192;28;20182;-72
2022/02/07 06:48:28;;;;;;;3.40;1.40;;;-0.10;99.90;;;;;;2076062;28;20202;-72
2022/02/07 06:49:29;;;;;;;3.37;1.37;;;-0.20;99.90;;;;;;2082500;28;20200;-72
2022/02/07 06:50:30;;;;;;;3.20;1.70;;;-0.20;99.90;;;;;;2097136;28;20245;-73
2022/02/07 06:51:31;;;;;;;5.93;1.57;;;-0.20;99.90;;;;;;2088664;28;20707;-72
2022/02/07 06:52:31;;;;;;;2.70;2.03;;;-0.20;99.90;;;;;;2085876;28;20733;-72
2022/02/07 06:53:33;;;;;;;2.67;1.40;;;-0.10;99.90;;;;;;2088773;28;20195;-73
2022/02/07 06:54:35;;;;;;;5.60;1.70;;;-0.10;99.90;;;;;;2080048;28;20181;-72
2022/02/07 06:55:36;;;;;;;4.60;1.65;;;-0.10;99.90;;;;;;2072488;28;20229;-73
2022/02/07 06:56:36;;;;;;;6.30;2.30;;;-0.10;99.90;;;;;;2080321;28;20185;-72
2022/02/07 06:57:37;;;;;;;5.47;1.93;;;-0.10;99.90;;;;;;2089419;28;20235;-73